Time;durP1;ratioP1;P1;durP2;ratioP2;P2;SDS_P1;SDS_P2;PMS_P1;PMS_P2;Temp;Humidity;BMP_temperature;BMP_pressure;BME280_temperature;BME280_humidity;BME280_pressure;Samples;Min_cycle;Max_cycle;Signal;HPM_P1;HPM_P2
2022/06/20 00:00:28;;;;;;;5.32;1.83;;;19.30;90.80;;;;;;5071723;28;20177;-69
2022/06/20 00:02:58;;;;;;;3.42;1.83;;;19.30;91.00;;;;;;5078000;28;20177;-70
2022/06/20 00:05:30;;;;;;;3.38;1.90;;;19.20;91.70;;;;;;5072642;28;20227;-71
2022/06/20 00:07:56;;;;;;;4.72;2.30;;;19.20;91.90;;;;;;5083350;28;20214;-69
2022/06/20 00:10:24;;;;;;;3.97;2.25;;;19.10;91.70;;;;;;5066833;28;20201;-70
2022/06/20 00:12:51;;;;;;;7.45;2.20;;;19.00;92.10;;;;;;5073703;28;20180;-71
2022/06/20 00:15:32;;;;;;;4.75;1.92;;;19.00;92.30;;;;;;5072168;28;20196;-71
2022/06/20 00:17:59;;;;;;;4.53;2.22;;;19.00;93.60;;;;;;5065962;28;20213;-69
2022/06/20 00:20:26;;;;;;;4.47;2.60;;;19.00;93.60;;;;;;5067293;28;20169;-70
2022/06/20 00:22:53;;;;;;;3.78;2.20;;;19.00;94.80;;;;;;5066523;28;20311;-70
2022/06/20 00:25:19;;;;;;;3.92;2.50;;;19.00;94.20;;;;;;5076260;28;20208;-69
2022/06/20 00:27:46;;;;;;;4.72;2.53;;;19.00;94.60;;;;;;5073401;28;20176;-71
2022/06/20 00:30:18;;;;;;;4.25;2.58;;;18.90;94.60;;;;;;5070570;28;20207;-71
2022/06/20 00:32:43;;;;;;;5.40;2.67;;;18.90;94.70;;;;;;5072452;28;20176;-71
2022/06/20 00:35:12;;;;;;;4.50;2.67;;;18.90;94.60;;;;;;5073055;28;20242;-71
2022/06/20 00:37:38;;;;;;;3.92;3.38;;;18.90;94.70;;;;;;5072852;28;20178;-71
2022/06/20 00:40:18;;;;;;;4.45;2.70;;;18.90;95.00;;;;;;5071026;28;20246;-70
2022/06/20 00:42:44;;;;;;;5.35;3.17;;;18.90;95.20;;;;;;5074658;28;20510;-70
2022/06/20 00:45:12;;;;;;;6.15;3.00;;;18.90;95.40;;;;;;5068277;28;20209;-69
2022/06/20 00:47:38;;;;;;;6.05;2.80;;;18.80;95.70;;;;;;5076252;28;20169;-70
2022/06/20 00:50:31;;;;;;;4.93;2.47;;;18.80;95.60;;;;;;5075154;28;20169;-70
2022/06/20 00:53:04;;;;;;;3.85;3.00;;;18.80;97.20;;;;;;5087970;28;20181;-70
2022/06/20 00:55:42;;;;;;;4.07;3.17;;;18.70;96.80;;;;;;5074191;28;20211;-69
2022/06/20 00:58:33;;;;;;;5.32;3.28;;;18.60;97.00;;;;;;5074447;28;20334;-69
2022/06/20 01:01:01;;;;;;;4.97;3.33;;;18.60;98.90;;;;;;5071772;28;20181;-69
2022/06/20 01:03:33;;;;;;;7.15;4.40;;;18.60;97.50;;;;;;5075246;28;20173;-71
2022/06/20 01:06:13;;;;;;;5.72;4.38;;;18.50;97.70;;;;;;5081211;28;20208;-70
2022/06/20 01:08:43;;;;;;;5.32;3.83;;;18.50;98.50;;;;;;5073717;28;20196;-71
2022/06/20 01:11:27;;;;;;;5.18;4.25;;;18.40;98.70;;;;;;5082715;28;20173;-70
2022/06/20 01:13:53;;;;;;;6.40;5.10;;;18.30;99.90;;;;;;5085633;28;20165;-68
2022/06/20 01:16:29;;;;;;;7.40;5.47;;;18.20;99.90;;;;;;5071463;28;20174;-71
2022/06/20 01:18:57;;;;;;;7.57;6.18;;;18.10;99.90;;;;;;5073859;28;20390;-70
2022/06/20 01:21:35;;;;;;;8.85;6.93;;;17.90;99.90;;;;;;5075037;28;20192;-70
2022/06/20 01:24:27;;;;;;;11.57;7.25;;;17.80;99.90;;;;;;5072711;28;20268;-70
2022/06/20 01:27:29;;;;;;;10.55;6.72;;;17.70;99.90;;;;;;5062533;28;20222;-70
2022/06/20 01:29:54;;;;;;;8.85;5.53;;;17.50;99.90;;;;;;5070256;28;20169;-69
2022/06/20 01:32:22;;;;;;;9.18;5.78;;;17.40;99.90;;;;;;5067812;28;20184;-69
2022/06/20 01:34:49;;;;;;;6.88;5.65;;;17.30;99.90;;;;;;5072409;28;20191;-71
2022/06/20 01:37:29;;;;;;;8.25;6.38;;;17.20;99.90;;;;;;5072778;28;20503;-69
2022/06/20 01:40:14;;;;;;;7.30;5.57;;;17.10;99.90;;;;;;5069300;28;20177;-70
2022/06/20 01:42:42;;;;;;;8.13;5.85;;;17.00;99.90;;;;;;5065785;28;20247;-69
2022/06/20 01:48:05;;;;;;;7.05;5.53;;;16.90;99.90;;;;;;5065582;28;20203;-68
2022/06/20 01:50:33;;;;;;;7.35;5.60;;;16.80;99.90;;;;;;5077837;28;20233;-69
2022/06/20 01:53:06;;;;;;;7.70;5.28;;;16.80;99.90;;;;;;5076477;28;20173;-70
2022/06/20 01:55:37;;;;;;;7.97;5.20;;;16.70;99.90;;;;;;5082619;28;20178;-70
2022/06/20 01:58:18;;;;;;;7.65;5.28;;;16.70;99.90;;;;;;5071437;28;20210;-72
2022/06/20 02:00:44;;;;;;;9.48;5.80;;;16.60;99.90;;;;;;5072186;28;20186;-72
2022/06/20 02:03:19;;;;;;;7.03;4.95;;;16.50;99.90;;;;;;5070759;28;20201;-69
2022/06/20 02:05:47;;;;;;;9.85;5.85;;;16.50;99.90;;;;;;5071513;28;20200;-70
2022/06/20 02:08:16;;;;;;;8.55;5.57;;;16.50;99.90;;;;;;5069432;28;20165;-69
2022/06/20 02:10:52;;;;;;;8.18;6.18;;;16.40;99.90;;;;;;5072322;28;20197;-71
2022/06/20 02:13:18;;;;;;;11.25;6.60;;;16.40;99.90;;;;;;5064962;28;20181;-71
2022/06/20 02:15:49;;;;;;;7.95;6.60;;;16.30;99.90;;;;;;5068941;28;20195;-70
2022/06/20 02:18:18;;;;;;;8.57;6.68;;;16.30;99.90;;;;;;5072218;28;20238;-71
2022/06/20 02:20:49;;;;;;;10.50;7.30;;;16.30;99.90;;;;;;5072500;28;20180;-71
2022/06/20 02:23:27;;;;;;;8.40;6.55;;;16.30;99.90;;;;;;5066910;28;20173;-70
2022/06/20 02:25:54;;;;;;;7.22;6.05;;;16.20;99.90;;;;;;5070387;28;20205;-70
2022/06/20 02:28:43;;;;;;;9.30;6.65;;;16.20;99.90;;;;;;5070988;28;20196;-71
2022/06/20 02:31:11;;;;;;;10.60;7.40;;;16.20;99.90;;;;;;5069906;28;20197;-71
2022/06/20 02:33:37;;;;;;;8.30;6.43;;;16.20;99.90;;;;;;5069463;28;20752;-71
2022/06/20 02:36:08;;;;;;;9.93;7.30;;;16.20;99.90;;;;;;5063249;28;20191;-71
2022/06/20 02:38:36;;;;;;;8.98;7.40;;;16.20;99.90;;;;;;5072292;28;20224;-69
2022/06/20 02:41:04;;;;;;;8.13;7.05;;;16.20;99.90;;;;;;5067083;28;20195;-70
2022/06/20 02:43:46;;;;;;;9.80;7.32;;;16.20;99.90;;;;;;5071644;28;20181;-70
2022/06/20 02:46:16;;;;;;;8.75;7.10;;;16.20;99.90;;;;;;5081821;28;20192;-71
2022/06/20 02:48:45;;;;;;;10.10;7.88;;;16.20;99.90;;;;;;5069171;28;20177;-68
2022/06/20 02:51:20;;;;;;;9.27;7.18;;;16.30;99.90;;;;;;5069370;28;20477;-66
2022/06/20 02:54:07;;;;;;;9.52;7.22;;;16.30;99.90;;;;;;5071883;28;20168;-70
2022/06/20 02:56:39;;;;;;;9.35;7.07;;;16.30;99.90;;;;;;5070179;28;20258;-71
2022/06/20 02:59:13;;;;;;;8.55;7.40;;;16.30;99.90;;;;;;5075740;28;20197;-70
2022/06/20 03:01:38;;;;;;;9.02;7.90;;;16.40;99.90;;;;;;5081752;28;20251;-70
2022/06/20 03:04:06;;;;;;;8.98;7.68;;;16.40;99.90;;;;;;5069949;28;20172;-70
2022/06/20 03:06:33;;;;;;;8.40;6.90;;;16.40;99.90;;;;;;5070048;28;20238;-70
2022/06/20 03:08:59;;;;;;;9.73;6.97;;;16.40;99.90;;;;;;5070707;28;20181;-70
2022/06/20 03:11:28;;;;;;;6.88;6.18;;;16.40;99.90;;;;;;5071785;28;20342;-69
2022/06/20 03:13:59;;;;;;;7.38;6.07;;;16.50;99.90;;;;;;5063257;28;20218;-69
2022/06/20 03:16:26;;;;;;;8.90;6.68;;;16.50;99.90;;;;;;5074004;28;20207;-69
2022/06/20 03:18:55;;;;;;;8.40;6.70;;;16.50;99.90;;;;;;5071059;28;20187;-69
2022/06/20 03:21:24;;;;;;;6.85;6.13;;;16.50;99.90;;;;;;5068905;28;20192;-68
2022/06/20 03:23:51;;;;;;;8.25;6.80;;;16.60;99.90;;;;;;5072105;28;20197;-69
2022/06/20 03:26:37;;;;;;;9.30;7.00;;;16.60;99.90;;;;;;5072493;28;20199;-69
2022/06/20 03:29:03;;;;;;;8.15;7.32;;;16.60;99.90;;;;;;5059398;28;20189;-69
2022/06/20 03:31:33;;;;;;;8.82;6.63;;;16.60;99.90;;;;;;5070477;28;20184;-68
2022/06/20 03:33:59;;;;;;;9.65;7.43;;;16.60;99.90;;;;;;5069745;28;20244;-69
2022/06/20 03:36:30;;;;;;;9.55;7.68;;;16.60;99.90;;;;;;5068914;28;20212;-70
2022/06/20 03:38:56;;;;;;;10.40;7.55;;;16.60;99.90;;;;;;5070916;28;20168;-70
2022/06/20 03:41:26;;;;;;;8.80;7.90;;;16.60;99.90;;;;;;5070218;28;20208;-70
2022/06/20 03:44:09;;;;;;;11.32;8.75;;;16.60;99.90;;;;;;5070236;28;20173;-69
2022/06/20 03:46:45;;;;;;;10.95;8.45;;;16.60;99.90;;;;;;5067384;28;20169;-70
2022/06/20 03:49:32;;;;;;;10.25;8.45;;;16.50;99.90;;;;;;5080297;28;20207;-71
2022/06/20 03:52:07;;;;;;;12.73;9.13;;;16.50;99.90;;;;;;5068355;28;20184;-71
2022/06/20 03:55:09;;;;;;;12.10;9.55;;;16.40;99.90;;;;;;5073272;28;20207;-73
2022/06/20 03:57:53;;;;;;;12.98;8.90;;;16.40;99.90;;;;;;5057802;28;20180;-76
2022/06/20 04:00:36;;;;;;;11.77;9.02;;;16.30;99.90;;;;;;5068628;28;20181;-76
2022/06/20 04:03:08;;;;;;;9.82;8.48;;;16.20;99.90;;;;;;5057006;28;20201;-75
2022/06/20 04:05:52;;;;;;;12.15;9.15;;;16.20;99.90;;;;;;5070627;28;20207;-71
2022/06/20 04:10:57;;;;;;;10.50;8.30;;;16.10;99.90;;;;;;5062357;28;20346;-75
2022/06/20 04:11:20;;;;;;;12.07;9.50;;;16.10;99.90;;;;;;5069676;28;20195;-72
2022/06/20 04:14:05;;;;;;;9.35;8.20;;;16.00;99.90;;;;;;5088545;28;20185;-71
2022/06/20 04:16:47;;;;;;;8.18;7.18;;;16.00;99.90;;;;;;5061025;28;20176;-71
2022/06/20 04:19:22;;;;;;;7.32;6.45;;;16.00;99.90;;;;;;5068174;28;20169;-71
2022/06/20 04:21:55;;;;;;;9.27;7.93;;;16.00;99.90;;;;;;5079404;28;20235;-70
2022/06/20 04:24:37;;;;;;;9.52;8.35;;;15.90;99.90;;;;;;5071495;28;20206;-70
2022/06/20 04:27:18;;;;;;;8.95;8.05;;;16.00;99.90;;;;;;5085477;28;20172;-70
2022/06/20 04:29:53;;;;;;;9.55;8.55;;;16.00;99.90;;;;;;5066542;28;20196;-69
2022/06/20 04:32:32;;;;;;;11.48;10.27;;;15.90;99.90;;;;;;5072522;28;20184;-69
2022/06/20 04:35:03;;;;;;;11.93;10.73;;;15.90;99.90;;;;;;5071562;28;20191;-70
2022/06/20 04:37:36;;;;;;;9.50;8.57;;;15.90;99.90;;;;;;5073530;28;20185;-71
2022/06/20 04:40:05;;;;;;;9.60;8.70;;;15.80;99.90;;;;;;5073814;28;20185;-72
2022/06/20 04:42:42;;;;;;;12.18;10.90;;;15.80;99.90;;;;;;5070162;28;20200;-70
2022/06/20 04:45:19;;;;;;;12.13;10.80;;;15.80;99.90;;;;;;5063660;28;20246;-71
2022/06/20 04:47:54;;;;;;;12.95;9.95;;;15.70;99.90;;;;;;5072270;28;20173;-71
2022/06/20 04:50:27;;;;;;;14.48;11.48;;;15.70;99.90;;;;;;5073230;28;20205;-71
2022/06/20 04:52:59;;;;;;;14.73;12.85;;;15.60;99.90;;;;;;5070923;28;20251;-71
2022/06/20 04:55:27;;;;;;;15.25;13.15;;;15.60;99.90;;;;;;5074092;28;20177;-71
2022/06/20 04:58:00;;;;;;;13.73;12.32;;;15.60;99.90;;;;;;5070981;28;20185;-69
2022/06/20 05:00:35;;;;;;;13.02;11.18;;;15.60;99.90;;;;;;5068919;28;20248;-71
2022/06/20 05:03:01;;;;;;;13.27;11.95;;;15.50;99.90;;;;;;5083973;28;20196;-70
2022/06/20 05:05:30;;;;;;;12.43;11.13;;;15.50;99.90;;;;;;5074654;28;20295;-71
2022/06/20 05:07:58;;;;;;;12.45;10.88;;;15.50;99.90;;;;;;5072991;28;20181;-72
2022/06/20 05:10:47;;;;;;;11.73;10.52;;;15.50;99.90;;;;;;5074147;28;20193;-72
2022/06/20 05:13:37;;;;;;;13.23;10.93;;;15.40;99.90;;;;;;5082466;28;20788;-71
2022/06/20 05:16:12;;;;;;;11.77;10.55;;;15.40;99.90;;;;;;5065056;28;20183;-72
2022/06/20 05:18:43;;;;;;;11.48;10.38;;;15.40;99.90;;;;;;5068582;28;20189;-71
2022/06/20 05:21:22;;;;;;;10.88;9.82;;;15.40;99.90;;;;;;5074029;28;20211;-71
2022/06/20 05:23:54;;;;;;;9.23;8.30;;;15.40;99.90;;;;;;5075067;28;20204;-72
2022/06/20 05:26:26;;;;;;;11.85;9.13;;;15.40;99.90;;;;;;5076692;28;20183;-71
2022/06/20 05:28:53;;;;;;;11.10;9.93;;;15.40;99.90;;;;;;5075892;28;20181;-72
2022/06/20 05:31:37;;;;;;;11.02;9.38;;;15.40;99.90;;;;;;5075661;28;20172;-71
2022/06/20 05:34:21;;;;;;;9.38;8.15;;;15.40;99.90;;;;;;5073303;28;20223;-71
2022/06/20 05:36:56;;;;;;;8.85;7.95;;;15.50;99.90;;;;;;5067523;28;20283;-71
2022/06/20 05:39:27;;;;;;;10.73;7.85;;;15.50;99.90;;;;;;5069397;28;20207;-71
2022/06/20 05:41:53;;;;;;;10.00;7.93;;;15.60;99.90;;;;;;5073946;28;20251;-69
2022/06/20 05:44:18;;;;;;;8.45;7.55;;;15.60;99.90;;;;;;5075385;28;20274;-71
2022/06/20 05:46:50;;;;;;;8.15;7.38;;;15.70;99.90;;;;;;5069008;28;20177;-70
2022/06/20 05:49:25;;;;;;;9.02;7.28;;;15.70;99.90;;;;;;5068493;28;20273;-70
2022/06/20 05:51:52;;;;;;;8.43;7.35;;;15.70;99.90;;;;;;5072500;28;20200;-70
2022/06/20 05:54:22;;;;;;;9.18;7.45;;;15.70;99.90;;;;;;5070270;28;20238;-70
2022/06/20 05:57:00;;;;;;;9.45;7.80;;;15.70;99.90;;;;;;5087165;28;20238;-70
2022/06/20 05:59:29;;;;;;;8.10;7.28;;;15.70;99.90;;;;;;5073238;28;20248;-69
2022/06/20 06:02:10;;;;;;;9.57;8.52;;;15.70;99.90;;;;;;5072215;28;20176;-70
2022/06/20 06:04:43;;;;;;;8.57;7.78;;;15.70;99.90;;;;;;5046018;28;20201;-70
2022/06/20 06:07:27;;;;;;;9.25;7.47;;;15.80;99.90;;;;;;5080407;28;20243;-70
2022/06/20 06:10:00;;;;;;;8.20;7.40;;;15.80;99.90;;;;;;5068614;28;20239;-70
2022/06/20 06:12:36;;;;;;;9.60;7.22;;;15.80;99.90;;;;;;5079670;28;20188;-70
2022/06/20 06:15:05;;;;;;;7.40;6.63;;;15.80;99.90;;;;;;5069557;28;20169;-70
2022/06/20 06:17:39;;;;;;;9.80;7.38;;;15.80;99.90;;;;;;5069045;28;20172;-69
2022/06/20 06:20:19;;;;;;;8.57;7.55;;;15.80;99.90;;;;;;5070072;28;20180;-70
2022/06/20 06:22:49;;;;;;;7.88;7.07;;;15.80;99.90;;;;;;5066944;28;20172;-70
2022/06/20 06:25:33;;;;;;;8.02;7.22;;;15.90;99.90;;;;;;5069877;28;20204;-68
2022/06/20 06:28:06;;;;;;;9.18;7.68;;;15.90;99.90;;;;;;5066191;28;20436;-70
2022/06/20 06:31:03;;;;;;;8.50;7.63;;;15.90;99.90;;;;;;5071915;28;20224;-68
2022/06/20 06:33:47;;;;;;;9.93;8.15;;;16.00;99.90;;;;;;5065245;28;20203;-69
2022/06/20 06:36:15;;;;;;;9.57;7.57;;;16.00;99.90;;;;;;5063440;28;20268;-70
2022/06/20 06:38:49;;;;;;;8.63;7.72;;;16.10;99.90;;;;;;5066207;28;20379;-70
2022/06/20 06:41:21;;;;;;;9.35;7.93;;;16.10;99.90;;;;;;5070324;28;20188;-70
2022/06/20 06:43:51;;;;;;;10.30;9.18;;;16.10;99.90;;;;;;5068646;28;20181;-70
2022/06/20 06:46:36;;;;;;;9.55;8.48;;;16.10;99.90;;;;;;5067789;28;20577;-70
2022/06/20 06:49:16;;;;;;;9.13;7.90;;;16.20;99.90;;;;;;5065252;28;20169;-69
2022/06/20 06:51:51;;;;;;;8.23;7.40;;;16.20;99.90;;;;;;5065240;28;20696;-69
2022/06/20 06:54:30;;;;;;;8.02;7.22;;;16.20;99.90;;;;;;5063367;28;20180;-70
2022/06/20 06:57:03;;;;;;;8.38;7.47;;;16.20;99.90;;;;;;5072354;28;20181;-70
2022/06/20 06:59:38;;;;;;;7.53;6.70;;;16.20;99.90;;;;;;5073108;28;20176;-69
2022/06/20 07:02:11;;;;;;;8.68;7.13;;;16.20;99.90;;;;;;5083926;28;20172;-70
2022/06/20 07:04:56;;;;;;;7.85;7.05;;;16.20;99.90;;;;;;5083917;28;20213;-70
2022/06/20 07:08:03;;;;;;;6.80;6.00;;;16.30;99.90;;;;;;5063046;28;20263;-70
2022/06/20 07:10:57;;;;;;;6.38;5.72;;;16.30;99.90;;;;;;5002019;28;20389;-69
2022/06/20 07:13:49;;;;;;;7.25;5.55;;;16.40;99.90;;;;;;5068659;28;20181;-70
2022/06/20 07:16:25;;;;;;;6.45;5.85;;;16.40;99.90;;;;;;5067026;28;20182;-68
2022/06/20 07:18:54;;;;;;;6.18;5.45;;;16.40;99.90;;;;;;5065643;28;20185;-70
2022/06/20 07:21:24;;;;;;;6.40;4.82;;;16.40;99.90;;;;;;5067392;28;20196;-70
2022/06/20 07:23:57;;;;;;;7.25;5.57;;;16.30;99.90;;;;;;5068519;28;20188;-71
2022/06/20 07:26:25;;;;;;;7.00;5.13;;;16.30;99.90;;;;;;5065729;28;20209;-68
2022/06/20 07:29:07;;;;;;;6.57;4.57;;;16.30;99.90;;;;;;5069316;28;20188;-69
2022/06/20 07:31:42;;;;;;;8.27;4.60;;;16.20;99.90;;;;;;5067374;28;20226;-70
2022/06/20 07:34:14;;;;;;;5.85;3.75;;;16.20;99.90;;;;;;5065988;28;20367;-69
2022/06/20 07:36:47;;;;;;;4.03;3.63;;;16.10;99.90;;;;;;5068627;28;20173;-69
2022/06/20 07:39:24;;;;;;;6.15;3.35;;;16.10;99.90;;;;;;5067553;28;20172;-70
2022/06/20 07:42:02;;;;;;;7.70;3.65;;;16.10;99.90;;;;;;5069396;28;20256;-70
2022/06/20 07:44:38;;;;;;;5.10;2.90;;;16.10;99.90;;;;;;5086558;28;20204;-69
2022/06/20 07:47:08;;;;;;;4.80;3.05;;;16.00;99.90;;;;;;5088548;28;20177;-70
2022/06/20 07:49:53;;;;;;;7.07;3.92;;;16.00;99.90;;;;;;5072986;28;20177;-69
2022/06/20 07:52:26;;;;;;;7.05;2.67;;;16.00;99.90;;;;;;5071379;28;20212;-68
2022/06/20 07:54:59;;;;;;;5.18;2.88;;;15.90;99.90;;;;;;5070309;28;20207;-79
2022/06/20 07:57:40;;;;;;;4.75;2.65;;;15.80;99.90;;;;;;5092320;28;20205;-76
2022/06/20 08:00:10;;;;;;;4.05;2.70;;;15.80;99.90;;;;;;5087451;28;20211;-79
2022/06/20 08:02:46;;;;;;;3.38;2.15;;;15.80;99.90;;;;;;5074722;28;20325;-79
2022/06/20 08:05:20;;;;;;;7.25;2.80;;;15.70;99.90;;;;;;5080868;28;20203;-76
2022/06/20 08:07:58;;;;;;;6.55;2.75;;;15.70;99.90;;;;;;5072421;28;20181;-73
2022/06/20 08:10:34;;;;;;;8.95;2.55;;;15.60;99.90;;;;;;5073129;28;20196;-73
2022/06/20 08:13:14;;;;;;;3.88;2.10;;;15.50;99.90;;;;;;5075404;28;20451;-75
2022/06/20 08:15:45;;;;;;;4.20;2.15;;;15.30;99.90;;;;;;5081298;28;20204;-75
2022/06/20 08:18:14;;;;;;;2.72;1.83;;;15.20;99.90;;;;;;5076693;28;20176;-75
2022/06/20 08:20:44;;;;;;;5.28;2.00;;;15.10;99.90;;;;;;5086819;28;20187;-78
2022/06/20 08:23:17;;;;;;;2.78;1.52;;;15.00;99.90;;;;;;5075861;28;20231;-78
2022/06/20 08:25:54;;;;;;;3.75;1.63;;;14.90;99.90;;;;;;5072457;28;20212;-78
2022/06/20 08:28:22;;;;;;;2.22;1.50;;;14.70;99.90;;;;;;5069225;28;20173;-76
2022/06/20 08:30:53;;;;;;;2.90;1.63;;;14.70;99.90;;;;;;5091269;28;20188;-76
2022/06/20 08:33:39;;;;;;;3.97;1.50;;;14.60;99.90;;;;;;5079649;28;20366;-77
2022/06/20 08:36:25;;;;;;;3.20;1.60;;;14.50;99.90;;;;;;5074098;28;20201;-78
2022/06/20 08:39:05;;;;;;;2.97;1.52;;;14.50;99.90;;;;;;5088850;28;20169;-77
2022/06/20 08:42:01;;;;;;;2.50;1.58;;;14.50;99.90;;;;;;5066935;28;20213;-76
2022/06/20 08:44:48;;;;;;;2.70;1.70;;;14.50;99.90;;;;;;5069271;28;20224;-74
2022/06/20 08:47:41;;;;;;;3.67;2.15;;;14.40;99.90;;;;;;5066685;28;20165;-78
2022/06/20 08:50:45;;;;;;;2.97;1.92;;;14.40;99.90;;;;;;5073980;28;20440;-76
2022/06/20 08:53:19;;;;;;;3.55;2.10;;;14.40;99.90;;;;;;5080887;28;20165;-76
2022/06/20 08:55:48;;;;;;;4.60;2.25;;;14.40;99.90;;;;;;5075056;28;20223;-78
2022/06/20 08:58:49;;;;;;;3.42;2.40;;;14.40;99.90;;;;;;5079797;28;20236;-78
2022/06/20 09:01:29;;;;;;;6.22;2.25;;;14.40;99.90;;;;;;5012994;28;20224;-80
2022/06/20 09:04:20;;;;;;;5.18;2.60;;;14.50;99.90;;;;;;5064690;28;20198;-79
2022/06/20 09:07:24;;;;;;;4.75;2.70;;;14.50;99.90;;;;;;5023697;28;20188;-79
2022/06/20 09:09:59;;;;;;;4.95;2.42;;;14.50;99.90;;;;;;5076797;28;20172;-81
2022/06/20 09:12:42;;;;;;;5.47;2.63;;;14.50;99.90;;;;;;5072558;28;20172;-81
2022/06/20 09:15:42;;;;;;;5.78;3.00;;;14.60;99.90;;;;;;5074458;28;20230;-81
2022/06/20 09:18:13;;;;;;;4.97;3.03;;;14.60;99.90;;;;;;5057204;28;20187;-86
2022/06/20 09:21:11;;;;;;;4.55;2.78;;;14.60;99.90;;;;;;5073246;28;20185;-86
2022/06/20 09:23:59;;;;;;;5.40;2.78;;;14.70;99.90;;;;;;5073793;28;20183;-79
2022/06/20 09:26:42;;;;;;;4.28;2.80;;;14.70;99.90;;;;;;5072985;28;20216;-82
2022/06/20 09:29:50;;;;;;;5.80;3.03;;;14.70;99.90;;;;;;5072431;28;20177;-82
2022/06/20 09:32:21;;;;;;;4.32;2.67;;;14.80;99.90;;;;;;5058680;28;20220;-86
2022/06/20 09:35:20;;;;;;;3.70;2.97;;;14.80;99.90;;;;;;5077381;28;20238;-83
2022/06/20 09:37:55;;;;;;;4.55;2.83;;;14.90;99.90;;;;;;5061040;28;20227;-79
2022/06/20 09:40:35;;;;;;;8.73;3.67;;;14.90;99.90;;;;;;5071897;28;20192;-80
2022/06/20 09:43:49;;;;;;;5.43;2.90;;;15.00;99.90;;;;;;5063718;28;20267;-79
2022/06/20 09:46:46;;;;;;;7.40;3.47;;;15.00;99.90;;;;;;5071162;28;20212;-81
2022/06/20 09:49:38;;;;;;;4.68;2.78;;;15.10;99.90;;;;;;5076135;28;20216;-79
2022/06/20 09:52:21;;;;;;;4.00;3.25;;;15.10;99.90;;;;;;5089652;28;20218;-80
2022/06/20 09:55:04;;;;;;;4.82;2.85;;;15.10;99.90;;;;;;5067582;28;20203;-78
2022/06/20 09:57:40;;;;;;;5.13;3.00;;;15.20;99.90;;;;;;5073396;28;20242;-80
2022/06/20 10:00:11;;;;;;;5.55;3.10;;;15.20;99.90;;;;;;5074494;28;20183;-78
2022/06/20 10:02:59;;;;;;;5.50;2.97;;;15.20;99.90;;;;;;5070975;28;20215;-79
2022/06/20 10:05:46;;;;;;;6.30;3.45;;;15.30;99.90;;;;;;5071813;28;20208;-79
2022/06/20 10:08:55;;;;;;;4.38;2.95;;;15.30;99.90;;;;;;5065823;28;20397;-78
2022/06/20 10:11:23;;;;;;;5.57;3.10;;;15.30;99.90;;;;;;5071787;28;20184;-76
2022/06/20 10:14:10;;;;;;;5.70;3.47;;;15.40;99.90;;;;;;5070856;28;20164;-80
2022/06/20 10:16:52;;;;;;;5.68;2.83;;;15.40;99.90;;;;;;5063796;28;20165;-79
2022/06/20 10:19:24;;;;;;;5.95;3.05;;;15.40;99.90;;;;;;5065980;28;20193;-77
2022/06/20 10:21:50;;;;;;;6.40;2.90;;;15.30;99.90;;;;;;5073843;28;20177;-76
2022/06/20 10:24:30;;;;;;;5.32;2.95;;;15.30;99.90;;;;;;5072939;28;20385;-80
2022/06/20 10:27:30;;;;;;;4.43;2.60;;;15.30;99.90;;;;;;5070332;28;20191;-80
2022/06/20 10:30:10;;;;;;;5.85;2.65;;;15.30;99.90;;;;;;5064415;28;20169;-77
2022/06/20 10:32:44;;;;;;;3.38;2.35;;;15.30;99.90;;;;;;5089387;28;20203;-79
2022/06/20 10:35:40;;;;;;;5.80;2.90;;;15.30;99.90;;;;;;5073449;28;20257;-78
2022/06/20 10:38:08;;;;;;;5.15;2.65;;;15.30;99.90;;;;;;5073700;28;20279;-77
2022/06/20 10:40:43;;;;;;;4.55;2.80;;;15.30;99.90;;;;;;5072316;28;20170;-79
2022/06/20 10:43:16;;;;;;;6.13;2.92;;;15.30;99.90;;;;;;5071715;28;20175;-80
2022/06/20 10:45:50;;;;;;;4.57;2.53;;;15.30;99.90;;;;;;5074504;28;20203;-77
2022/06/20 10:48:23;;;;;;;4.97;3.20;;;15.30;99.90;;;;;;5078095;28;20207;-75
2022/06/20 10:51:11;;;;;;;3.05;2.35;;;15.40;99.90;;;;;;5055761;28;20189;-77
2022/06/20 10:53:52;;;;;;;3.53;2.33;;;15.40;99.90;;;;;;5068857;28;20173;-77
2022/06/20 10:56:26;;;;;;;5.97;2.70;;;15.40;99.90;;;;;;5073488;28;20237;-76
2022/06/20 10:59:10;;;;;;;3.45;2.20;;;15.50;99.90;;;;;;5072490;28;20242;-75
2022/06/20 11:01:52;;;;;;;5.05;2.30;;;15.50;99.90;;;;;;5069395;28;20173;-78
2022/06/20 11:04:18;;;;;;;3.40;2.45;;;15.50;99.90;;;;;;5071278;28;20230;-76
2022/06/20 11:07:04;;;;;;;5.15;2.00;;;15.50;99.90;;;;;;5072592;28;20216;-76
2022/06/20 11:09:34;;;;;;;3.83;2.25;;;15.50;99.90;;;;;;5072635;28;20192;-75
2022/06/20 11:12:09;;;;;;;7.45;2.45;;;15.60;99.90;;;;;;5069600;28;20188;-75
2022/06/20 11:14:57;;;;;;;6.22;2.47;;;15.60;99.90;;;;;;5069585;28;20181;-76
2022/06/20 11:17:28;;;;;;;5.50;2.65;;;15.70;99.90;;;;;;5070277;28;20207;-75
2022/06/20 11:20:12;;;;;;;5.00;2.40;;;15.80;99.90;;;;;;5069835;28;20180;-78
2022/06/20 11:22:43;;;;;;;4.82;2.70;;;16.00;99.90;;;;;;5076826;28;20180;-78
2022/06/20 11:25:17;;;;;;;4.53;2.72;;;16.10;99.90;;;;;;5056612;28;20226;-80
2022/06/20 11:27:54;;;;;;;4.18;2.67;;;16.20;99.90;;;;;;5064698;28;20257;-77
2022/06/20 11:30:24;;;;;;;4.22;2.20;;;16.20;99.90;;;;;;5076996;28;20183;-75
2022/06/20 11:33:11;;;;;;;5.47;2.67;;;16.40;99.90;;;;;;5072957;28;20185;-79
2022/06/20 11:35:58;;;;;;;4.13;2.40;;;16.40;99.90;;;;;;5073478;28;20720;-78
2022/06/20 11:38:51;;;;;;;4.70;2.50;;;16.50;99.90;;;;;;5075514;28;20180;-80
2022/06/20 11:41:36;;;;;;;6.35;3.53;;;16.60;99.90;;;;;;5068039;28;20203;-80
2022/06/20 11:44:43;;;;;;;5.72;3.30;;;16.60;99.90;;;;;;5065925;28;20191;-79
2022/06/20 11:47:36;;;;;;;5.80;3.10;;;16.70;99.90;;;;;;5064593;28;20267;-79
2022/06/20 11:50:15;;;;;;;5.10;3.40;;;16.70;99.90;;;;;;5062601;28;20177;-77
2022/06/20 11:53:23;;;;;;;6.45;3.20;;;16.70;99.90;;;;;;5092156;28;20263;-81
2022/06/20 11:56:04;;;;;;;6.10;3.17;;;16.80;99.90;;;;;;5059138;28;20179;-81
2022/06/20 11:59:14;;;;;;;5.35;3.40;;;16.80;99.90;;;;;;5063078;28;20192;-80
2022/06/20 12:02:29;;;;;;;6.57;4.00;;;16.90;99.90;;;;;;5074143;28;20207;-80
2022/06/20 12:05:14;;;;;;;6.50;3.47;;;16.90;99.90;;;;;;5049750;28;20216;-81
2022/06/20 12:07:54;;;;;;;6.05;4.32;;;16.90;99.90;;;;;;5056170;28;20255;-81
2022/06/20 12:10:39;;;;;;;6.63;4.03;;;16.90;99.90;;;;;;5060489;28;20172;-79
2022/06/20 12:13:14;;;;;;;6.78;3.80;;;17.00;99.90;;;;;;5070087;28;20165;-82
2022/06/20 12:15:54;;;;;;;6.57;4.35;;;17.10;99.90;;;;;;5068851;28;20181;-82
2022/06/20 12:18:39;;;;;;;7.07;4.68;;;17.20;99.90;;;;;;5063674;28;20291;-81
2022/06/20 12:24:09;;;;;;;5.40;4.90;;;17.50;99.90;;;;;;5060530;28;20200;-82
2022/06/20 12:26:44;;;;;;;5.78;4.47;;;17.60;99.90;;;;;;5072254;28;20176;-83
2022/06/20 12:29:16;;;;;;;8.65;4.47;;;17.80;99.90;;;;;;5064757;28;20173;-78
2022/06/20 12:31:51;;;;;;;7.70;4.80;;;18.00;99.90;;;;;;5074875;28;20173;-83
2022/06/20 12:34:19;;;;;;;7.05;5.65;;;18.10;99.90;;;;;;5072008;28;20191;-82
2022/06/20 12:37:07;;;;;;;7.32;5.68;;;18.40;99.90;;;;;;5056682;28;20200;-85
2022/06/20 12:39:58;;;;;;;7.72;5.72;;;18.70;99.90;;;;;;5068014;28;20184;-78
2022/06/20 12:42:37;;;;;;;6.60;5.47;;;18.90;99.90;;;;;;5071565;28;20192;-82
2022/06/20 12:45:13;;;;;;;6.30;5.50;;;19.10;99.90;;;;;;5064128;28;20207;-82
2022/06/20 12:48:27;;;;;;;6.32;5.68;;;19.30;99.90;;;;;;5080445;28;20179;-80
2022/06/20 12:51:14;;;;;;;7.75;5.20;;;19.40;99.90;;;;;;5014435;28;20182;-85
2022/06/20 12:54:03;;;;;;;8.38;5.80;;;19.50;99.90;;;;;;5075778;28;20262;-81
2022/06/20 12:56:39;;;;;;;7.25;5.25;;;19.50;99.90;;;;;;5075768;28;20191;-81
2022/06/20 12:59:45;;;;;;;8.40;5.40;;;19.60;99.90;;;;;;5073441;28;20187;-82
2022/06/20 13:02:15;;;;;;;6.43;4.90;;;19.60;99.90;;;;;;5061812;28;20204;-82
2022/06/20 13:05:21;;;;;;;6.32;4.93;;;19.80;99.90;;;;;;5075307;28;20197;-81
2022/06/20 13:08:08;;;;;;;6.00;5.18;;;20.00;99.90;;;;;;5096525;28;20186;-83
2022/06/20 13:10:46;;;;;;;8.10;5.32;;;20.20;99.90;;;;;;5083544;28;20263;-78
2022/06/20 13:13:29;;;;;;;5.53;4.35;;;20.30;99.90;;;;;;5075069;28;20168;-81
2022/06/20 13:16:32;;;;;;;5.45;4.55;;;20.40;99.90;;;;;;5074945;28;20180;-79
2022/06/20 13:19:25;;;;;;;7.45;5.03;;;20.40;99.90;;;;;;5055280;28;20230;-78
2022/06/20 13:22:06;;;;;;;5.30;4.15;;;20.50;99.90;;;;;;5069640;28;20188;-80
2022/06/20 13:25:16;;;;;;;6.22;4.57;;;20.60;99.90;;;;;;5073726;28;20189;-81
2022/06/20 13:28:02;;;;;;;7.53;4.55;;;20.90;99.90;;;;;;5035561;28;20177;-79
2022/06/20 13:30:45;;;;;;;6.82;4.70;;;21.30;99.90;;;;;;5070568;28;20260;-82
2022/06/20 13:33:36;;;;;;;6.75;4.35;;;21.50;99.90;;;;;;5055746;28;20191;-80
2022/06/20 13:36:03;;;;;;;5.82;4.32;;;21.70;99.90;;;;;;5087078;28;20180;-79
2022/06/20 13:38:46;;;;;;;3.92;3.53;;;21.80;99.90;;;;;;5056886;28;20192;-78
2022/06/20 13:41:40;;;;;;;4.13;3.42;;;21.90;99.90;;;;;;5082176;28;20253;-81
2022/06/20 13:44:20;;;;;;;6.13;3.55;;;22.20;99.90;;;;;;5037129;28;20189;-82
2022/06/20 13:46:50;;;;;;;4.97;3.38;;;22.50;99.90;;;;;;5074166;28;20187;-80